Time;durP1;ratioP1;P1;durP2;ratioP2;P2;SDS_P1;SDS_P2;PMS_P1;PMS_P2;Temp;Humidity;BMP_temperature;BMP_pressure;BME280_temperature;BME280_humidity;BME280_pressure;Samples;Min_cycle;Max_cycle;Signal;HPM_P1;HPM_P2
2022/07/26 00:00:44;;;;;;;2.38;1.48;;;24.70;59.70;;;24.94;66.61;100226.88;5009761;28;20486;-81
2022/07/26 00:03:12;;;;;;;2.30;1.45;;;24.70;59.70;;;25.02;66.84;100221.66;5029039;28;20045;-81
2022/07/26 00:05:39;;;;;;;4.25;1.63;;;24.70;59.90;;;24.86;69.07;100223.00;4995303;28;20053;-81
2022/07/26 00:08:09;;;;;;;3.22;1.58;;;24.70;60.10;;;24.66;71.92;100224.69;5029010;28;20060;-81
2022/07/26 00:10:44;;;;;;;2.20;1.80;;;24.60;60.40;;;24.88;72.27;100242.53;5012724;28;20433;-80
2022/07/26 00:13:11;;;;;;;3.58;1.90;;;24.60;60.70;;;24.78;73.21;100242.50;5012483;28;20057;-81
2022/07/26 00:15:38;;;;;;;5.47;2.03;;;24.60;60.90;;;24.82;73.32;100234.16;5027440;28;20069;-81
2022/07/26 00:18:06;;;;;;;2.95;2.20;;;24.60;61.20;;;24.88;74.41;100249.78;5012059;28;20049;-81
2022/07/26 00:20:38;;;;;;;4.07;2.47;;;24.60;61.40;;;24.77;76.45;100258.78;5028797;28;20045;-81
2022/07/26 00:23:07;;;;;;;6.77;2.37;;;24.60;61.60;;;24.61;79.00;100249.31;5012811;28;20084;-81
2022/07/26 00:25:34;;;;;;;6.40;2.28;;;24.50;61.90;;;24.53;83.41;100254.47;5028974;28;20120;-81
2022/07/26 00:28:02;;;;;;;2.83;1.70;;;24.40;62.60;;;24.39;89.54;100249.41;5028415;28;20046;-81
2022/07/26 00:30:29;;;;;;;2.63;1.80;;;24.40;63.70;;;24.45;89.04;100257.81;5012099;28;20053;-81
2022/07/26 00:32:56;;;;;;;2.63;1.75;;;24.30;63.90;;;24.30;95.58;100256.41;5028816;28;20721;-81
2022/07/26 00:35:24;;;;;;;4.40;2.13;;;24.30;65.30;;;24.18;100.00;100266.38;5028661;28;20041;-81
2022/07/26 00:37:51;;;;;;;5.28;2.78;;;24.20;66.40;;;24.22;100.00;100262.44;5029096;28;20045;-81
2022/07/26 00:40:18;;;;;;;3.40;1.88;;;24.10;67.10;;;24.25;100.00;100275.63;5012584;28;20049;-81
2022/07/26 00:42:45;;;;;;;3.80;2.20;;;24.10;67.60;;;24.30;100.00;100277.94;5028781;28;20699;-81
2022/07/26 00:45:14;;;;;;;4.95;2.22;;;24.00;68.20;;;24.30;100.00;100283.31;5012111;28;20045;-81
2022/07/26 00:47:41;;;;;;;3.78;2.05;;;24.00;68.40;;;24.22;100.00;100275.88;5031313;28;20049;-81
2022/07/26 00:50:13;;;;;;;3.83;1.90;;;24.10;69.20;;;24.23;100.00;100272.22;5048165;28;20064;-81
2022/07/26 00:52:46;;;;;;;4.90;1.98;;;24.00;69.50;;;24.26;100.00;100287.25;5032275;28;20053;-81
2022/07/26 00:55:15;;;;;;;3.80;2.03;;;23.90;69.80;;;24.20;100.00;100289.47;5036481;28;20046;-80
2022/07/26 00:57:43;;;;;;;3.90;1.90;;;24.20;70.40;;;24.11;100.00;100294.72;5012806;28;20045;-81
2022/07/26 01:00:16;;;;;;;3.28;1.80;;;23.90;70.60;;;23.97;100.00;100291.34;5012317;28;20041;-81
2022/07/26 01:02:44;;;;;;;2.70;1.88;;;23.90;71.10;;;24.04;100.00;100305.13;5012939;28;20112;-81
2022/07/26 01:05:11;;;;;;;3.55;1.85;;;23.80;71.30;;;23.96;100.00;100299.50;5030248;28;20049;-82
2022/07/26 01:07:39;;;;;;;7.07;1.88;;;23.80;71.80;;;24.00;100.00;100304.50;5011795;28;20064;-81
2022/07/26 01:10:11;;;;;;;3.55;2.25;;;23.80;72.00;;;23.98;100.00;100305.59;5011927;28;20047;-81
2022/07/26 01:12:42;;;;;;;2.95;1.70;;;23.80;72.40;;;24.07;100.00;100305.72;5029005;28;20127;-81
2022/07/26 01:15:11;;;;;;;2.95;1.88;;;23.80;72.30;;;24.04;100.00;100303.31;5028953;28;20613;-81
2022/07/26 01:17:39;;;;;;;2.42;1.60;;;23.80;72.60;;;24.00;100.00;100306.31;5012507;28;20042;-80
2022/07/26 01:20:09;;;;;;;3.40;1.60;;;23.80;73.70;;;24.07;100.00;100311.09;5028000;28;20046;-81
2022/07/26 01:22:37;;;;;;;6.07;2.03;;;23.80;73.40;;;23.98;100.00;100306.47;5012718;28;20064;-81
2022/07/26 01:25:05;;;;;;;2.85;1.67;;;23.80;73.60;;;23.97;100.00;100318.19;5011519;28;20490;-81
2022/07/26 01:27:38;;;;;;;2.95;1.70;;;23.80;74.30;;;23.99;100.00;100320.75;5028694;28;20615;-80
2022/07/26 01:30:09;;;;;;;1.77;1.55;;;23.70;74.50;;;23.89;100.00;100308.09;5028571;28;20165;-80
2022/07/26 01:32:36;;;;;;;5.32;2.03;;;23.80;75.20;;;23.99;100.00;100299.25;5012382;28;20614;-80
2022/07/26 01:35:06;;;;;;;4.60;1.92;;;23.70;75.70;;;24.01;100.00;100298.16;5028566;28;20046;-80
2022/07/26 01:37:33;;;;;;;3.13;1.60;;;23.70;76.20;;;24.04;100.00;100302.44;5012386;28;20045;-81
2022/07/26 01:40:00;;;;;;;3.83;1.77;;;23.70;76.60;;;24.03;100.00;100298.91;5028214;28;20033;-81
2022/07/26 01:42:27;;;;;;;4.43;1.77;;;23.70;77.50;;;24.04;100.00;100300.63;5029420;28;20132;-80
2022/07/26 01:44:54;;;;;;;2.22;1.80;;;23.70;78.10;;;24.05;100.00;100307.69;5028659;28;20048;-80
2022/07/26 01:47:21;;;;;;;4.80;1.98;;;23.80;78.90;;;24.01;100.00;100306.22;5028875;28;20044;-81
2022/07/26 01:49:49;;;;;;;4.15;2.25;;;23.80;79.60;;;24.12;100.00;100299.97;5012106;28;20049;-80
2022/07/26 01:52:17;;;;;;;7.30;1.98;;;23.80;80.00;;;23.88;100.00;100298.31;5029681;28;20052;-81
2022/07/26 01:54:44;;;;;;;3.90;1.77;;;23.80;81.40;;;24.01;100.00;100297.28;5029269;28;20057;-81
2022/07/26 01:57:11;;;;;;;5.22;1.90;;;23.80;81.60;;;23.97;100.00;100310.13;5030880;28;20446;-81
2022/07/26 01:59:38;;;;;;;5.00;2.15;;;23.80;82.70;;;24.10;100.00;100295.72;5030924;28;20049;-81
2022/07/26 02:02:05;;;;;;;3.65;2.17;;;23.80;82.60;;;23.84;100.00;100309.44;4998208;28;20049;-81
2022/07/26 02:07:18;;;;;;;4.18;2.75;;;23.70;85.60;;;23.67;100.00;100306.28;5028881;28;20168;-80
2022/07/26 02:09:45;;;;;;;3.63;2.75;;;23.60;86.50;;;23.61;100.00;100307.63;5026289;28;20076;-81
2022/07/26 02:12:14;;;;;;;3.90;2.83;;;23.50;87.60;;;23.55;100.00;100310.78;5002030;28;20041;-80
2022/07/26 02:14:41;;;;;;;6.35;3.20;;;23.40;88.40;;;23.54;100.00;100313.59;5009556;28;20064;-81
2022/07/26 02:17:08;;;;;;;4.18;3.17;;;23.40;89.60;;;23.48;100.00;100310.41;5010532;28;20061;-80
2022/07/26 02:19:35;;;;;;;7.38;4.88;;;23.40;90.00;;;23.52;100.00;100311.03;5026452;28;20042;-80
2022/07/26 02:22:02;;;;;;;7.07;4.85;;;23.30;90.30;;;23.50;100.00;100321.91;5010347;28;20052;-81
2022/07/26 02:24:29;;;;;;;6.15;3.58;;;23.30;90.60;;;23.44;100.00;100322.38;5026755;28;20417;-80
2022/07/26 02:26:58;;;;;;;10.73;3.55;;;23.20;90.90;;;23.47;100.00;100323.97;5010744;28;20049;-81
2022/07/26 02:29:26;;;;;;;5.22;2.85;;;23.20;91.10;;;23.44;100.00;100318.84;4994262;28;20525;-80
2022/07/26 02:31:54;;;;;;;5.65;2.88;;;23.20;91.20;;;23.30;100.00;100320.81;4996366;28;20041;-80
2022/07/26 02:34:22;;;;;;;4.00;3.30;;;23.20;91.60;;;23.19;100.00;100326.13;5030481;28;20059;-80
2022/07/26 02:36:49;;;;;;;11.90;3.25;;;23.10;91.90;;;23.20;100.00;100327.81;5016107;28;20513;-81
2022/07/26 02:39:17;;;;;;;7.95;4.53;;;23.10;92.20;;;23.11;100.00;100326.72;5012161;28;20417;-81
2022/07/26 02:41:44;;;;;;;5.35;3.80;;;23.00;92.40;;;23.09;100.00;100332.19;5030845;28;20042;-80
2022/07/26 02:44:11;;;;;;;7.38;3.92;;;23.00;92.60;;;23.12;100.00;100332.94;5014230;28;20065;-80
2022/07/26 02:46:38;;;;;;;4.43;3.67;;;22.90;92.80;;;23.12;100.00;100328.41;5027228;28;20151;-81
2022/07/26 02:49:05;;;;;;;6.97;3.78;;;22.90;93.10;;;23.08;100.00;100335.00;5033825;28;20501;-81
2022/07/26 02:51:32;;;;;;;5.28;3.50;;;22.90;93.00;;;23.04;100.00;100333.53;5018569;28;20140;-81
2022/07/26 02:53:59;;;;;;;6.82;3.00;;;22.80;93.20;;;23.04;100.00;100341.59;5015634;28;20049;-81
2022/07/26 02:56:26;;;;;;;6.90;3.95;;;22.90;93.20;;;22.86;100.00;100333.13;5046106;28;20050;-80
2022/07/26 02:58:53;;;;;;;6.60;3.47;;;22.80;93.50;;;23.04;100.00;100334.38;5051011;28;20055;-81
2022/07/26 03:01:21;;;;;;;4.95;3.60;;;22.80;93.40;;;22.85;100.00;100329.56;5029112;28;20029;-80
2022/07/26 03:03:48;;;;;;;5.20;3.78;;;22.80;93.70;;;22.83;100.00;100331.53;5029651;28;20049;-81
2022/07/26 03:06:18;;;;;;;5.32;3.97;;;22.70;93.80;;;22.64;100.00;100338.28;5037212;28;20064;-81
2022/07/26 03:08:47;;;;;;;8.65;3.50;;;22.60;94.10;;;22.49;100.00;100332.28;5035573;28;20055;-81
2022/07/26 03:11:14;;;;;;;5.07;3.65;;;22.60;94.40;;;22.55;100.00;100335.44;5036394;28;20053;-80
2022/07/26 03:13:41;;;;;;;4.22;3.13;;;22.40;94.40;;;22.46;100.00;100326.25;5051700;28;20053;-81
2022/07/26 03:16:08;;;;;;;6.63;3.88;;;22.40;94.60;;;22.45;100.00;100328.06;5052083;28;20051;-81
2022/07/26 03:18:35;;;;;;;4.75;3.25;;;22.60;94.70;;;22.54;100.00;100331.91;5035577;28;20036;-81
2022/07/26 03:21:02;;;;;;;5.57;3.38;;;22.30;94.60;;;22.57;100.00;100338.88;5051720;28;20170;-80
2022/07/26 03:23:32;;;;;;;4.97;3.13;;;22.30;94.60;;;22.49;100.00;100337.63;5051664;28;20048;-81
2022/07/26 03:26:03;;;;;;;3.33;2.30;;;22.30;94.70;;;22.55;100.00;100347.00;5033320;28;20045;-80
2022/07/26 03:28:32;;;;;;;2.38;1.77;;;22.30;94.80;;;22.42;100.00;100346.22;5049722;28;20043;-80
2022/07/26 03:31:00;;;;;;;2.60;2.08;;;22.30;95.00;;;22.45;100.00;100335.25;5032328;28;20056;-80
2022/07/26 03:33:28;;;;;;;2.50;2.15;;;22.30;94.90;;;22.41;100.00;100336.47;5048979;28;20049;-80
2022/07/26 03:35:56;;;;;;;2.92;1.52;;;22.30;95.10;;;22.56;100.00;100338.03;5033268;28;20055;-80
2022/07/26 03:38:23;;;;;;;2.53;1.70;;;22.30;94.90;;;22.51;100.00;100333.00;5049690;28;20045;-81
2022/07/26 03:40:50;;;;;;;4.68;1.70;;;22.30;94.90;;;22.46;100.00;100339.66;5032621;28;20041;-80
2022/07/26 03:43:18;;;;;;;4.10;1.70;;;22.30;94.90;;;22.30;100.00;100340.78;5032639;28;20049;-81
2022/07/26 03:45:50;;;;;;;3.47;1.60;;;22.20;95.00;;;22.35;100.00;100335.09;5017356;28;20098;-81
2022/07/26 03:48:20;;;;;;;3.47;1.90;;;22.20;94.90;;;22.38;100.00;100340.22;5049402;28;20775;-80
2022/07/26 03:50:48;;;;;;;5.45;1.63;;;22.20;94.90;;;22.42;100.00;100340.84;5031602;28;20052;-81
2022/07/26 03:53:16;;;;;;;2.53;1.80;;;22.20;94.80;;;22.44;100.00;100346.94;5015512;28;20053;-81
2022/07/26 03:58:29;;;;;;;2.72;1.77;;;22.20;94.80;;;22.39;100.00;100333.88;5035025;28;20057;-81
2022/07/26 04:00:56;;;;;;;5.13;1.98;;;22.30;94.90;;;22.22;100.00;100341.34;5047301;28;20056;-80
2022/07/26 04:03:23;;;;;;;2.13;1.58;;;22.10;95.00;;;22.32;100.00;100341.53;5032504;28;20056;-80
2022/07/26 04:05:51;;;;;;;5.20;2.05;;;22.10;94.90;;;22.22;100.00;100343.16;5032816;28;20111;-80
2022/07/26 04:08:18;;;;;;;4.05;2.30;;;22.10;95.00;;;22.27;100.00;100349.06;5032511;28;20102;-80
2022/07/26 04:10:49;;;;;;;3.63;2.08;;;22.10;95.20;;;22.20;100.00;100351.34;5048891;28;20041;-81
2022/07/26 04:13:18;;;;;;;6.10;2.00;;;22.10;95.20;;;22.25;100.00;100359.03;5028670;28;20100;-82
2022/07/26 04:15:45;;;;;;;7.38;5.10;;;22.00;95.20;;;22.14;100.00;100357.13;5022307;28;20674;-80
2022/07/26 04:18:15;;;;;;;4.45;2.75;;;22.10;95.30;;;22.13;100.00;100366.13;5049906;28;20120;-78
2022/07/26 04:20:42;;;;;;;5.13;2.50;;;22.00;95.50;;;22.13;100.00;100352.75;5051409;28;20053;-78
2022/07/26 04:23:10;;;;;;;3.67;2.33;;;21.90;95.70;;;22.03;100.00;100362.44;5028593;28;20041;-78
2022/07/26 04:25:39;;;;;;;3.10;1.98;;;21.90;95.70;;;22.02;100.00;100358.88;5027926;28;20099;-78
2022/07/26 04:28:09;;;;;;;3.93;2.07;;;21.90;95.90;;;21.99;100.00;100364.47;5025022;28;20490;-80
2022/07/26 04:30:37;;;;;;;2.42;1.80;;;21.90;96.00;;;22.01;100.00;100365.22;5030809;28;20049;-77
2022/07/26 04:33:05;;;;;;;3.67;2.10;;;21.80;96.30;;;21.88;100.00;100375.97;5036449;28;20697;-77
2022/07/26 04:35:33;;;;;;;3.17;1.55;;;21.80;96.50;;;21.93;100.00;100380.97;5047360;28;20044;-76
2022/07/26 04:38:03;;;;;;;3.13;2.22;;;21.80;96.60;;;21.94;100.00;100380.88;5049706;28;20052;-80
2022/07/26 04:40:34;;;;;;;2.30;1.65;;;21.80;96.50;;;21.92;100.00;100384.63;5032506;28;20053;-78
2022/07/26 04:43:07;;;;;;;5.72;1.90;;;21.70;96.60;;;21.98;100.00;100383.31;5031859;28;20042;-78
2022/07/26 04:45:45;;;;;;;5.40;1.70;;;21.80;96.30;;;22.04;100.00;100381.06;5032480;28;20064;-78
2022/07/26 04:48:13;;;;;;;2.70;1.90;;;21.80;96.40;;;21.99;100.00;100379.66;5031456;28;20049;-78
2022/07/26 04:50:42;;;;;;;4.90;2.08;;;21.80;96.40;;;21.90;100.00;100398.13;5027911;28;20041;-78
2022/07/26 04:53:12;;;;;;;3.15;1.92;;;21.80;96.40;;;22.00;100.00;100384.94;5030927;28;20053;-78
2022/07/26 04:55:40;;;;;;;;;;;21.80;96.40;;;21.99;100.00;100387.72;5049387;28;20045;-79
2022/07/26 04:58:08;;;;;;;3.63;1.73;;;21.80;96.50;;;22.00;100.00;100390.28;5028536;28;19925;-79
2022/07/26 05:00:36;;;;;;;1.75;1.45;;;21.80;96.40;;;21.84;100.00;100403.06;5035163;28;20040;-79
2022/07/26 05:03:24;;;;;;;2.10;1.50;;;21.80;96.60;;;21.92;100.00;100404.22;5041476;28;20045;-79
2022/07/26 05:05:51;;;;;;;2.35;1.55;;;21.80;96.60;;;21.84;100.00;100401.22;5031240;28;20088;-78
2022/07/26 05:08:19;;;;;;;2.50;1.80;;;21.80;96.50;;;21.83;100.00;100402.19;5030699;28;20045;-78
2022/07/26 05:10:46;;;;;;;2.28;1.80;;;21.80;96.50;;;21.76;100.00;100396.41;5030166;28;20045;-79
2022/07/26 05:13:20;;;;;;;2.38;1.58;;;21.80;96.40;;;21.84;100.00;100405.75;5029953;28;20137;-78
2022/07/26 05:15:56;;;;;;;2.97;1.70;;;21.70;96.50;;;21.88;100.00;100410.78;5047092;28;20053;-79
2022/07/26 05:18:23;;;;;;;2.00;1.50;;;21.70;96.40;;;21.94;100.00;100420.19;5030320;28;20046;-78
2022/07/26 05:20:51;;;;;;;2.15;1.95;;;21.70;96.30;;;21.84;100.00;100408.41;5046220;28;20045;-79
2022/07/26 05:23:19;;;;;;;2.47;1.60;;;21.70;96.10;;;21.94;100.00;100410.34;5030585;28;20056;-78
2022/07/26 05:25:47;;;;;;;4.00;2.30;;;21.80;96.10;;;21.95;100.00;100411.19;5031792;28;20056;-78
2022/07/26 05:28:14;;;;;;;3.00;2.13;;;21.80;96.10;;;22.03;100.00;100410.66;5032486;28;20044;-78
2022/07/26 05:30:41;;;;;;;2.85;1.88;;;21.80;95.90;;;21.94;100.00;100404.97;5029975;28;20136;-78
2022/07/26 05:33:08;;;;;;;3.60;2.22;;;21.80;95.90;;;21.95;100.00;100409.38;5014624;28;20049;-78
2022/07/26 05:35:35;;;;;;;2.33;1.65;;;21.80;95.90;;;21.90;100.00;100418.69;5030652;28;20060;-78
2022/07/26 05:38:02;;;;;;;4.45;2.20;;;21.80;95.60;;;21.89;100.00;100419.66;5031452;28;20135;-78
2022/07/26 05:40:29;;;;;;;2.30;1.45;;;21.80;95.60;;;21.87;100.00;100418.91;5030106;28;20042;-78
2022/07/26 05:42:56;;;;;;;5.47;1.92;;;21.80;95.20;;;21.83;100.00;100426.31;5030901;28;20069;-78
2022/07/26 05:45:23;;;;;;;3.25;1.98;;;21.80;94.90;;;21.87;100.00;100422.47;5013736;28;20047;-78
2022/07/26 05:47:51;;;;;;;4.13;1.95;;;21.80;94.60;;;21.85;100.00;100426.19;5031474;28;20100;-78
2022/07/26 05:50:19;;;;;;;4.47;2.67;;;21.80;94.50;;;21.84;100.00;100425.34;5013132;28;20273;-77
2022/07/26 05:52:46;;;;;;;5.38;2.63;;;21.80;94.20;;;21.79;100.00;100438.19;5029734;28;20046;-78
2022/07/26 05:55:13;;;;;;;8.50;2.13;;;21.70;94.00;;;21.79;100.00;100433.72;5012796;28;20140;-78
2022/07/26 05:57:40;;;;;;;3.70;1.77;;;21.70;93.90;;;21.75;100.00;100437.56;5042742;28;20048;-78
2022/07/26 06:00:11;;;;;;;3.53;1.65;;;21.70;93.40;;;21.84;100.00;100446.75;5031887;28;20086;-79
2022/07/26 06:02:39;;;;;;;5.10;2.10;;;21.70;93.50;;;21.78;100.00;100447.19;5029860;28;20090;-78
2022/07/26 06:05:07;;;;;;;4.60;1.90;;;21.70;93.50;;;21.80;100.00;100448.81;5029372;28;20091;-79
2022/07/26 06:07:34;;;;;;;3.70;2.22;;;21.70;93.30;;;21.80;100.00;100438.09;5026835;28;20156;-78
2022/07/26 06:10:01;;;;;;;5.00;2.05;;;21.70;93.10;;;21.67;100.00;100446.13;5031969;28;20422;-79
2022/07/26 06:12:28;;;;;;;3.78;1.85;;;21.70;93.10;;;21.63;100.00;100455.31;5049064;28;20049;-78
2022/07/26 06:14:55;;;;;;;6.07;1.95;;;21.60;93.10;;;21.51;100.00;100451.66;5051832;28;20086;-78
2022/07/26 06:17:22;;;;;;;4.00;1.88;;;21.50;93.40;;;21.43;100.00;100448.66;5035902;28;20045;-79
2022/07/26 06:19:49;;;;;;;3.92;1.85;;;21.50;93.40;;;21.45;100.00;100453.91;5035634;28;20045;-78
2022/07/26 06:22:16;;;;;;;5.28;2.03;;;21.40;93.60;;;21.45;100.00;100457.41;5055027;28;20043;-79
2022/07/26 06:24:43;;;;;;;5.20;2.20;;;21.40;93.80;;;21.49;100.00;100453.59;5052088;28;20041;-79
2022/07/26 06:27:11;;;;;;;5.35;2.28;;;21.40;94.00;;;21.61;100.00;100453.69;5052813;28;20053;-78
2022/07/26 06:29:39;;;;;;;10.15;2.53;;;21.50;93.60;;;21.66;100.00;100448.94;5033736;28;20049;-77
2022/07/26 06:32:06;;;;;;;6.35;2.25;;;21.50;93.50;;;21.70;100.00;100455.78;5052571;28;20072;-79
2022/07/26 06:34:33;;;;;;;3.85;2.13;;;21.50;93.60;;;21.74;100.00;100453.75;5051241;28;20049;-75
2022/07/26 06:37:00;;;;;;;4.45;2.00;;;21.50;93.50;;;21.60;100.00;100460.88;5050439;28;20047;-77
2022/07/26 06:39:27;;;;;;;8.05;2.17;;;21.60;93.20;;;21.60;100.00;100463.56;5050741;28;20049;-75
2022/07/26 06:41:54;;;;;;;4.60;2.08;;;21.60;93.20;;;21.49;100.00;100456.28;5048550;28;20474;-76
2022/07/26 06:44:21;;;;;;;5.28;1.88;;;21.60;93.00;;;21.44;100.00;100471.75;5050542;28;20047;-75
2022/07/26 06:46:49;;;;;;;4.47;2.20;;;21.50;93.20;;;21.46;100.00;100460.97;5050925;28;20132;-75
2022/07/26 06:49:16;;;;;;;6.10;2.60;;;21.50;93.30;;;21.52;100.00;100457.84;5045591;28;20045;-75
2022/07/26 06:51:48;;;;;;;5.40;2.28;;;21.50;93.40;;;21.72;100.00;100453.84;5043659;28;20297;-75
2022/07/26 06:54:15;;;;;;;2.97;1.83;;;21.60;93.40;;;21.72;100.00;100450.31;5049446;28;20041;-75
2022/07/26 06:56:42;;;;;;;5.63;2.28;;;21.60;92.60;;;21.86;100.00;100460.06;5051242;28;20609;-75
2022/07/26 06:59:09;;;;;;;5.85;2.10;;;21.70;92.20;;;21.86;100.00;100455.56;5049472;28;20055;-75
2022/07/26 07:01:36;;;;;;;5.10;2.22;;;21.70;91.80;;;21.83;100.00;100449.56;5033251;28;20047;-75
2022/07/26 07:04:23;;;;;;;3.72;2.05;;;21.80;91.50;;;21.87;100.00;100456.41;5039622;28;20053;-77
2022/07/26 07:06:50;;;;;;;6.40;2.17;;;21.80;91.50;;;21.88;100.00;100453.63;5029353;28;20049;-77
2022/07/26 07:09:18;;;;;;;6.65;1.83;;;21.70;91.30;;;21.95;100.00;100452.22;5029945;28;20103;-77
2022/07/26 07:11:48;;;;;;;2.88;1.60;;;21.80;91.00;;;21.92;100.00;100462.28;5029610;28;20067;-79
2022/07/26 07:14:24;;;;;;;4.95;1.95;;;21.80;90.80;;;21.88;100.00;100459.00;5013950;28;20045;-77
2022/07/26 07:16:51;;;;;;;2.22;1.70;;;21.80;90.80;;;21.96;100.00;100463.81;5028621;28;20037;-79
2022/07/26 07:19:19;;;;;;;5.65;1.70;;;21.80;90.70;;;21.98;100.00;100461.88;5011710;28;20049;-77
2022/07/26 07:21:46;;;;;;;3.33;1.70;;;21.80;90.70;;;22.04;100.00;100464.09;5029155;28;20136;-78
2022/07/26 07:24:13;;;;;;;3.92;1.70;;;21.80;90.70;;;21.98;100.00;100466.34;5032796;28;20044;-77
2022/07/26 07:26:41;;;;;;;2.58;1.65;;;21.90;90.40;;;21.94;100.00;100460.38;5048673;28;20045;-77
2022/07/26 07:29:14;;;;;;;3.45;1.52;;;21.90;90.50;;;21.99;100.00;100463.59;5030416;28;20156;-77
2022/07/26 07:31:41;;;;;;;4.60;1.73;;;21.80;90.70;;;21.97;100.00;100457.47;5048891;28;20442;-77
2022/07/26 07:34:17;;;;;;;4.35;2.00;;;21.90;90.60;;;22.11;100.00;100453.81;5047440;28;20576;-78
2022/07/26 07:36:45;;;;;;;;;;;21.90;90.70;;;22.27;100.00;100458.94;5030843;28;20091;-78
2022/07/26 07:39:13;;;;;;;4.57;1.50;;;21.90;90.60;;;22.41;100.00;100459.75;5031175;28;19924;-77
2022/07/26 07:41:47;;;;;;;4.63;1.73;;;22.10;90.40;;;22.37;100.00;100457.28;5032515;28;20041;-77
2022/07/26 07:44:15;;;;;;;4.32;2.42;;;22.20;90.10;;;22.33;100.00;100449.59;5048268;28;20044;-77
2022/07/26 07:46:42;;;;;;;5.65;1.80;;;22.20;89.50;;;22.39;100.00;100455.34;5032163;28;20061;-77
2022/07/26 07:49:09;;;;;;;3.25;1.63;;;22.20;89.80;;;22.51;99.23;100458.13;5031274;28;20111;-77
2022/07/26 07:51:37;;;;;;;5.18;1.48;;;22.20;89.50;;;22.58;100.00;100443.31;5032064;28;20049;-77
2022/07/26 07:54:04;;;;;;;6.03;1.73;;;22.30;89.60;;;22.46;95.73;100446.88;5028430;28;20045;-78
2022/07/26 07:56:33;;;;;;;4.85;1.77;;;22.40;88.10;;;22.77;95.27;100450.84;5012103;28;20049;-78
2022/07/26 07:59:00;;;;;;;2.53;1.42;;;22.50;88.50;;;22.80;93.29;100455.13;5029713;28;20037;-78
2022/07/26 08:01:27;;;;;;;4.65;1.52;;;22.60;88.40;;;22.93;92.41;100453.25;5031026;28;20050;-78
2022/07/26 08:04:07;;;;;;;5.22;1.60;;;22.60;87.80;;;22.95;90.71;100456.66;5031065;28;20053;-78
2022/07/26 08:06:35;;;;;;;4.90;1.65;;;22.70;87.10;;;23.01;88.49;100457.16;5014159;28;20116;-77
2022/07/26 08:09:03;;;;;;;4.43;1.65;;;22.80;86.70;;;22.91;90.35;100448.97;5028979;28;20053;-77
2022/07/26 08:11:33;;;;;;;4.93;1.80;;;22.80;86.70;;;23.00;89.15;100453.66;5029179;28;20802;-78
2022/07/26 08:14:00;;;;;;;2.90;1.77;;;22.80;86.60;;;23.21;86.49;100456.53;5027686;28;20533;-77
2022/07/26 08:16:28;;;;;;;5.18;1.60;;;22.90;86.20;;;22.89;84.16;100457.13;5043907;28;20157;-77
2022/07/26 08:18:55;;;;;;;3.50;1.60;;;22.90;84.90;;;23.04;82.49;100462.31;5060506;28;20456;-77
2022/07/26 08:21:25;;;;;;;3.53;1.70;;;22.90;85.30;;;23.12;81.49;100459.06;5045082;28;20041;-77
2022/07/26 08:23:56;;;;;;;2.90;1.55;;;22.90;84.80;;;23.49;83.52;100462.50;5028245;28;20045;-77
2022/07/26 08:26:24;;;;;;;3.60;1.80;;;23.10;85.70;;;23.22;79.65;100460.94;5027955;28;20033;-77
2022/07/26 08:28:51;;;;;;;3.50;1.50;;;23.20;84.00;;;23.56;80.57;100454.81;5026954;28;20123;-77
2022/07/26 08:31:28;;;;;;;3.28;1.40;;;23.20;84.70;;;23.73;78.09;100466.94;5045507;28;20045;-76
2022/07/26 08:33:55;;;;;;;5.95;1.95;;;23.40;84.10;;;23.52;77.88;100456.03;5026993;28;20037;-78
2022/07/26 08:36:23;;;;;;;2.95;1.30;;;23.40;83.40;;;23.84;78.78;100451.81;5027569;28;20063;-77
2022/07/26 08:38:57;;;;;;;2.75;1.10;;;23.40;84.10;;;23.90;74.56;100462.94;5026607;28;20042;-77
2022/07/26 08:41:24;;;;;;;3.70;1.40;;;23.60;83.20;;;23.89;75.03;100457.66;5028708;28;20038;-77
2022/07/26 08:43:51;;;;;;;1.38;1.13;;;23.70;83.10;;;23.63;72.64;100456.06;5027096;28;20037;-80
2022/07/26 08:46:23;;;;;;;3.15;1.20;;;23.70;82.00;;;23.83;73.74;100463.53;5027742;28;20056;-80
2022/07/26 08:48:56;;;;;;;3.20;1.30;;;23.60;82.50;;;23.62;76.33;100462.41;5047138;28;20098;-79
2022/07/26 08:51:25;;;;;;;5.60;1.30;;;23.60;82.60;;;23.64;76.27;100464.94;5047132;28;20099;-78
2022/07/26 08:53:58;;;;;;;3.05;1.70;;;23.60;82.70;;;23.68;78.36;100468.25;5046048;28;20061;-78
2022/07/26 08:56:35;;;;;;;3.03;1.40;;;23.50;83.10;;;23.72;77.76;100472.41;5043447;28;20037;-76
2022/07/26 08:59:14;;;;;;;2.97;1.35;;;23.50;83.10;;;23.71;76.10;100476.06;5010497;28;20140;-78
2022/07/26 09:01:52;;;;;;;3.45;1.30;;;23.60;82.70;;;23.85;73.61;100477.69;5028317;28;20092;-78
2022/07/26 09:04:27;;;;;;;3.38;1.50;;;23.60;82.10;;;23.76;74.92;100481.97;5043578;28;20045;-78
2022/07/26 09:07:09;;;;;;;;;;;23.60;82.00;;;24.02;73.40;100470.97;5028991;28;20045;-77
2022/07/26 09:10:02;;;;;;;2.00;1.17;;;23.70;82.10;;;24.20;71.72;100474.94;5010363;28;20386;-78
2022/07/26 09:12:31;;;;;;;4.43;1.83;;;23.80;82.10;;;24.22;69.62;100480.16;5027295;28;20049;-78
2022/07/26 09:15:00;;;;;;;3.38;1.67;;;24.00;81.20;;;24.00;70.79;100473.78;5028029;28;20976;-77
2022/07/26 09:17:44;;;;;;;3.00;1.13;;;24.00;81.40;;;23.97;72.33;100465.97;5028461;28;20128;-78
2022/07/26 09:20:12;;;;;;;1.65;1.08;;;23.80;81.10;;;24.12;69.57;100461.25;5026398;28;20051;-79
2022/07/26 09:23:12;;;;;;;2.30;1.40;;;23.90;80.80;;;24.08;68.84;100468.69;5026732;28;20041;-79
2022/07/26 09:25:42;;;;;;;4.70;1.35;;;23.90;80.50;;;24.21;68.87;100473.09;5026689;28;20041;-77
2022/07/26 09:28:26;;;;;;;3.05;1.30;;;23.90;80.50;;;24.43;67.25;100482.09;5010441;28;20463;-79
2022/07/26 09:31:04;;;;;;;4.65;1.60;;;24.00;80.40;;;24.48;64.12;100487.97;5026298;28;20049;-78
2022/07/26 09:33:45;;;;;;;2.58;1.17;;;24.20;79.40;;;24.62;64.91;100478.75;5026867;28;20041;-77
2022/07/26 09:36:12;;;;;;;2.00;1.00;;;24.20;79.70;;;24.58;58.71;100480.84;5027048;28;20164;-78
2022/07/26 09:38:45;;;;;;;2.10;0.93;;;24.30;77.70;;;24.68;58.58;100472.91;5029815;28;20128;-78
2022/07/26 09:41:25;;;;;;;1.75;1.10;;;24.40;77.70;;;24.70;57.24;100468.25;5046541;28;20072;-78
2022/07/26 09:43:53;;;;;;;2.53;1.30;;;24.40;77.10;;;24.80;57.43;100472.88;5029553;28;20149;-79
2022/07/26 09:46:24;;;;;;;4.07;1.33;;;24.50;77.20;;;24.99;57.27;100470.38;5046719;28;20103;-78
2022/07/26 09:48:54;;;;;;;3.63;1.02;;;24.60;77.10;;;25.00;55.15;100472.09;5044333;28;20041;-78
2022/07/26 09:51:47;;;;;;;3.83;1.40;;;24.80;76.10;;;25.25;55.15;100472.69;5046107;28;20049;-77
2022/07/26 09:54:28;;;;;;;4.80;1.55;;;24.80;76.40;;;25.20;56.19;100467.69;5045501;28;20049;-78
2022/07/26 09:56:56;;;;;;;3.13;1.00;;;24.90;76.30;;;25.08;55.74;100473.28;5046089;28;20049;-78
2022/07/26 09:59:25;;;;;;;2.63;1.30;;;25.00;75.80;;;25.09;55.86;100483.06;5029139;28;20043;-78
2022/07/26 10:01:56;;;;;;;1.90;1.23;;;24.90;75.70;;;24.89;55.09;100481.03;5004588;28;20045;-79
2022/07/26 10:04:24;;;;;;;3.30;1.30;;;24.90;75.10;;;24.81;55.33;100485.34;5029602;28;20041;-78
2022/07/26 10:06:52;;;;;;;2.03;1.20;;;24.80;75.00;;;24.74;56.20;100475.06;5046305;28;20049;-78
2022/07/26 10:09:24;;;;;;;3.30;1.25;;;24.70;75.10;;;24.89;56.09;100485.56;5037282;28;20041;-78
2022/07/26 10:12:04;;;;;;;2.20;1.20;;;24.70;75.50;;;25.06;54.35;100487.72;5026948;28;20821;-78
2022/07/26 10:14:50;;;;;;;3.97;1.23;;;24.80;75.10;;;25.03;54.40;100473.66;5024935;28;20777;-79
2022/07/26 10:17:29;;;;;;;1.83;0.82;;;24.80;74.80;;;25.12;53.96;100482.78;5029451;28;20045;-78
2022/07/26 10:20:07;;;;;;;1.98;1.10;;;24.90;74.70;;;25.04;54.27;100472.66;5046762;28;20051;-78
2022/07/26 10:22:49;;;;;;;3.42;1.00;;;24.80;74.60;;;24.98;55.05;100483.94;5028031;28;20711;-79